首页
METAR-TAF:

METAR-TAF

机场 :

法兰西堡, 馬提尼克

馬丁尼克-亞米-凱薩國際機場

纬度: 14-36N, 经度: 061-00W, 海拔: 5米

当前天气观测

该预报发布于32分钟前的14:00 UTC
风速10节,风向
温度 29°C
湿度 62%
气压 1016 hPa
能见度10公里或以上
散云层高于3200英尺

METAR: TFFF 241400Z AUTO 09010KT 9999 SCT032 29/21 Q1016 NOSIG

时间: 10:32 (14:32 UTC)

预报

该预报发布于3小时和31分钟前的11:01 UTC
预报有效从24日的 12点(UTC)到 25日的 12点(UTC)
风速10节,风向东转东北
能见度10公里或以上
多云层高于3000英尺
多云层高于4000英尺
成为
从 25日的 04点(UTC)到 25日的 06点(UTC)
风速2节,风向多变
几率 40% :
短暂存在
从 25日的 02点(UTC)到 25日的 12点(UTC)
能見度: 4000
散云层高于1800英尺, 塔状积云.
阵雨

TAF: TFFF 241101Z 2412/2512 06010KT 9999 BKN030 BKN040 BECMG 2504/2506 VRB02KT PROB40 TEMPO 2502/2512 4000 SHRA SCT018TCU

超过4000个机场的气象观测和天气预报(METAR&TAF报告)。

可查询的气象台以黄色和红色小点在地图上表示。

将鼠标移到小点上方,可查看气象台名称。

然后点击查看天气观测和预报。

如需切换地图:点击带黑十字的绿色按钮放大地图;点击带横线的绿色按钮缩小地图;或者点击绿色箭头查看邻近地区的地图。


METAR-TAF: